Time;durP1;ratioP1;P1;durP2;ratioP2;P2;SDS_P1;SDS_P2;PMS_P1;PMS_P2;Temp;Humidity;BMP_temperature;BMP_pressure;BME280_temperature;BME280_humidity;BME280_pressure;Samples;Min_cycle;Max_cycle;Signal;HPM_P1;HPM_P2
2023/07/08 00:01:17;;;;;;;12.07;8.93;;;;;;;;;;5045858;28;20028;-61
2023/07/08 00:03:42;;;;;;;11.73;9.23;;;;;;;;;;5048215;28;20584;-61
2023/07/08 00:06:26;;;;;;;11.75;9.05;;;;;;;;;;5057114;28;20100;-61
2023/07/08 00:08:51;;;;;;;11.27;9.23;;;;;;;;;;5057121;28;20177;-61
2023/07/08 00:11:17;;;;;;;12.57;9.55;;;;;;;;;;5046137;28;20115;-61
2023/07/08 00:13:42;;;;;;;12.13;9.50;;;;;;;;;;5060201;28;20071;-62
2023/07/08 00:16:11;;;;;;;13.87;9.83;;;;;;;;;;5052052;28;20513;-61
2023/07/08 00:18:36;;;;;;;12.90;9.80;;;;;;;;;;5045155;28;20388;-61
2023/07/08 00:21:01;;;;;;;11.53;9.73;;;;;;;;;;5045198;28;20068;-61
2023/07/08 00:23:27;;;;;;;14.35;10.00;;;;;;;;;;5044391;28;20033;-61
2023/07/08 00:25:52;;;;;;;14.73;10.10;;;;;;;;;;5044637;28;20572;-61
2023/07/08 00:28:18;;;;;;;13.03;9.97;;;;;;;;;;5056635;28;20516;-61
2023/07/08 00:30:43;;;;;;;11.32;9.93;;;;;;;;;;5065577;22;20521;-65
2023/07/08 00:33:08;;;;;;;11.38;9.40;;;;;;;;;;5045200;28;20039;-64
2023/07/08 00:35:34;;;;;;;10.60;9.30;;;;;;;;;;5052542;28;20036;-64
2023/07/08 00:38:03;;;;;;;13.73;9.48;;;;;;;;;;5044863;28;20381;-65
2023/07/08 00:40:32;;;;;;;12.13;9.93;;;;;;;;;;5040829;28;20033;-64
2023/07/08 00:42:58;;;;;;;11.30;9.30;;;;;;;;;;5042648;28;20064;-64
2023/07/08 00:45:30;;;;;;;13.80;9.70;;;;;;;;;;5027647;28;20121;-64
2023/07/08 00:47:55;;;;;;;11.85;9.50;;;;;;;;;;5044402;28;20049;-64
2023/07/08 00:50:20;;;;;;;11.95;9.40;;;;;;;;;;5053145;23;20139;-65
2023/07/08 00:52:46;;;;;;;11.27;9.80;;;;;;;;;;5062371;28;20043;-65
2023/07/08 00:55:11;;;;;;;13.27;8.98;;;;;;;;;;5046531;28;20348;-65
2023/07/08 00:57:38;;;;;;;11.67;9.27;;;;;;;;;;5056900;28;20102;-66
2023/07/08 01:00:04;;;;;;;11.10;9.32;;;;;;;;;;5026125;28;20726;-65
2023/07/08 01:02:29;;;;;;;11.50;9.23;;;;;;;;;;5043164;28;20033;-65
2023/07/08 01:04:56;;;;;;;10.55;8.77;;;;;;;;;;5050411;28;20431;-66
2023/07/08 01:07:21;;;;;;;11.75;9.85;;;;;;;;;;5026939;28;20099;-65
2023/07/08 01:09:47;;;;;;;10.68;8.75;;;;;;;;;;5040831;28;20055;-65
2023/07/08 01:12:15;;;;;;;10.43;9.25;;;;;;;;;;5047051;28;20303;-65
2023/07/08 01:14:42;;;;;;;10.75;8.88;;;;;;;;;;5041671;28;20041;-66
2023/07/08 01:17:07;;;;;;;12.48;9.13;;;;;;;;;;5045106;28;20044;-65
2023/07/08 01:19:32;;;;;;;13.15;8.75;;;;;;;;;;5038207;28;20045;-66
2023/07/08 01:22:01;;;;;;;11.37;8.67;;;;;;;;;;5046888;28;20025;-66
2023/07/08 01:24:26;;;;;;;9.95;7.85;;;;;;;;;;5049746;28;20457;-65
2023/07/08 01:26:52;;;;;;;11.45;8.68;;;;;;;;;;5050283;28;20094;-65
2023/07/08 01:29:17;;;;;;;12.00;8.33;;;;;;;;;;5050020;28;20036;-65
2023/07/08 01:31:48;;;;;;;9.97;7.90;;;;;;;;;;5066660;28;20279;-64
2023/07/08 01:34:13;;;;;;;10.00;8.85;;;;;;;;;;5050334;28;20378;-66
2023/07/08 01:36:39;;;;;;;9.47;8.47;;;;;;;;;;5046341;28;20223;-65
2023/07/08 01:39:04;;;;;;;11.90;9.00;;;;;;;;;;5036437;28;20303;-66
2023/07/08 01:41:29;;;;;;;11.27;8.53;;;;;;;;;;5048265;28;20056;-66
2023/07/08 01:43:54;;;;;;;9.40;8.17;;;;;;;;;;5051264;28;20779;-64
2023/07/08 01:46:21;;;;;;;10.60;8.27;;;;;;;;;;5047112;28;20318;-63
2023/07/08 01:48:48;;;;;;;10.98;8.75;;;;;;;;;;5047887;28;20345;-64
2023/07/08 01:51:14;;;;;;;9.00;8.07;;;;;;;;;;5031021;28;20033;-64
2023/07/08 01:53:40;;;;;;;11.37;8.50;;;;;;;;;;5067701;28;20047;-63
2023/07/08 01:56:05;;;;;;;11.55;8.30;;;;;;;;;;5051673;28;20044;-63
2023/07/08 01:58:30;;;;;;;10.07;8.40;;;;;;;;;;5044709;28;20499;-64
2023/07/08 02:00:56;;;;;;;10.10;8.73;;;;;;;;;;5057579;28;20461;-64
2023/07/08 02:03:21;;;;;;;11.57;8.00;;;;;;;;;;5041332;28;20380;-63
2023/07/08 02:05:46;;;;;;;9.35;7.82;;;;;;;;;;5059248;28;20396;-63
2023/07/08 02:08:11;;;;;;;10.13;8.00;;;;;;;;;;5054680;28;20032;-64
2023/07/08 02:10:38;;;;;;;13.00;8.37;;;;;;;;;;5053936;28;20040;-65
2023/07/08 02:13:03;;;;;;;9.13;7.18;;;;;;;;;;5049462;28;20276;-63
2023/07/08 02:15:28;;;;;;;10.05;7.45;;;;;;;;;;5049887;28;20082;-64
2023/07/08 02:17:54;;;;;;;11.03;8.43;;;;;;;;;;5052347;28;20122;-64
2023/07/08 02:20:19;;;;;;;10.52;8.00;;;;;;;;;;5035668;28;20041;-63
2023/07/08 02:22:44;;;;;;;9.70;7.90;;;;;;;;;;5055305;28;20037;-64
2023/07/08 02:25:09;;;;;;;9.50;7.77;;;;;;;;;;5061550;28;20082;-64
2023/07/08 02:27:35;;;;;;;8.57;7.27;;;;;;;;;;5061506;28;20279;-64
2023/07/08 02:30:00;;;;;;;8.25;7.03;;;;;;;;;;5054093;28;20150;-64
2023/07/08 02:32:26;;;;;;;9.65;7.30;;;;;;;;;;5047640;28;20029;-66
2023/07/08 02:34:52;;;;;;;10.23;7.53;;;;;;;;;;5034932;28;20029;-63
2023/07/08 02:37:17;;;;;;;9.18;7.53;;;;;;;;;;5050262;28;20040;-63
2023/07/08 02:39:43;;;;;;;10.20;7.45;;;;;;;;;;5045189;28;20489;-66
2023/07/08 02:42:08;;;;;;;8.98;7.45;;;;;;;;;;5051887;28;20087;-63
2023/07/08 02:44:33;;;;;;;10.23;7.78;;;;;;;;;;5054005;28;20037;-65
2023/07/08 02:46:59;;;;;;;10.57;7.95;;;;;;;;;;5053019;28;20037;-63
2023/07/08 02:49:24;;;;;;;9.75;8.20;;;;;;;;;;5062852;28;20127;-65
2023/07/08 02:51:49;;;;;;;9.77;7.40;;;;;;;;;;5052478;28;20095;-65
2023/07/08 02:54:15;;;;;;;13.03;8.33;;;;;;;;;;5053401;28;20025;-64
2023/07/08 02:56:40;;;;;;;9.83;8.43;;;;;;;;;;5060528;28;20028;-64
2023/07/08 02:59:06;;;;;;;10.30;7.57;;;;;;;;;;5052825;28;20333;-64
2023/07/08 03:01:33;;;;;;;8.32;7.53;;;;;;;;;;5028331;28;20857;-64
2023/07/08 03:03:59;;;;;;;10.90;8.40;;;;;;;;;;5052291;28;20543;-63
2023/07/08 03:06:25;;;;;;;9.60;7.85;;;;;;;;;;5055433;28;20068;-66
2023/07/08 03:08:50;;;;;;;11.20;7.70;;;;;;;;;;5030836;28;20025;-63
2023/07/08 03:11:16;;;;;;;9.60;7.68;;;;;;;;;;5050618;28;20033;-64
2023/07/08 03:13:41;;;;;;;10.48;8.10;;;;;;;;;;5049022;28;20154;-65
2023/07/08 03:16:12;;;;;;;10.27;7.85;;;;;;;;;;5038456;28;20481;-63
2023/07/08 03:18:38;;;;;;;10.90;7.50;;;;;;;;;;5028208;28;20059;-63
2023/07/08 03:21:04;;;;;;;8.70;7.60;;;;;;;;;;5031617;28;20776;-63
2023/07/08 03:23:29;;;;;;;9.47;7.03;;;;;;;;;;5054078;28;20048;-63
2023/07/08 03:25:54;;;;;;;10.47;7.43;;;;;;;;;;5041839;28;20798;-64
2023/07/08 03:28:20;;;;;;;7.93;6.57;;;;;;;;;;5057387;28;20290;-63
2023/07/08 03:30:45;;;;;;;8.00;6.75;;;;;;;;;;5037200;28;20345;-64
2023/07/08 03:33:11;;;;;;;8.90;6.43;;;;;;;;;;5047223;28;20082;-64
2023/07/08 03:35:36;;;;;;;9.70;6.60;;;;;;;;;;5059482;28;20508;-63
2023/07/08 03:38:02;;;;;;;9.87;6.60;;;;;;;;;;5039616;28;20136;-63
2023/07/08 03:40:27;;;;;;;11.18;6.53;;;;;;;;;;5043478;28;20290;-62
2023/07/08 03:42:52;;;;;;;8.73;6.63;;;;;;;;;;5059043;28;20090;-65
2023/07/08 03:45:18;;;;;;;9.60;6.40;;;;;;;;;;5059817;28;20818;-65
2023/07/08 03:47:43;;;;;;;7.00;6.00;;;;;;;;;;5042631;28;20535;-64
2023/07/08 03:50:15;;;;;;;8.03;6.40;;;;;;;;;;5055644;28;20807;-64
2023/07/08 03:52:41;;;;;;;9.43;5.95;;;;;;;;;;5031401;28;20037;-65
2023/07/08 03:55:06;;;;;;;9.77;6.40;;;;;;;;;;5045488;28;20033;-64
2023/07/08 03:57:31;;;;;;;10.52;6.65;;;;;;;;;;5055250;28;20310;-64
2023/07/08 03:59:57;;;;;;;8.20;6.53;;;;;;;;;;5049831;28;20037;-65
2023/07/08 04:02:22;;;;;;;8.57;6.60;;;;;;;;;;5061571;28;20687;-63
2023/07/08 04:04:47;;;;;;;8.73;6.53;;;;;;;;;;5064334;28;20294;-64
2023/07/08 04:07:12;;;;;;;7.03;6.13;;;;;;;;;;5050640;28;20128;-65
2023/07/08 04:09:38;;;;;;;9.32;6.15;;;;;;;;;;5054206;28;20504;-64
2023/07/08 04:12:04;;;;;;;7.20;5.60;;;;;;;;;;5060281;28;20032;-65
2023/07/08 04:14:30;;;;;;;8.52;6.20;;;;;;;;;;5032706;28;20722;-65
2023/07/08 04:16:57;;;;;;;8.50;6.40;;;;;;;;;;5043965;28;20095;-65
2023/07/08 04:19:23;;;;;;;8.63;6.35;;;;;;;;;;5032971;28;20381;-66
2023/07/08 04:21:48;;;;;;;8.98;6.25;;;;;;;;;;5036256;28;20944;-68
2023/07/08 04:24:14;;;;;;;8.00;5.63;;;;;;;;;;5039509;28;20738;-68
2023/07/08 04:26:39;;;;;;;7.40;5.93;;;;;;;;;;5057167;28;20025;-68
2023/07/08 04:29:06;;;;;;;10.00;6.43;;;;;;;;;;5055856;28;20066;-68
2023/07/08 04:31:31;;;;;;;7.80;5.65;;;;;;;;;;5037072;28;20131;-65
2023/07/08 04:33:56;;;;;;;11.53;6.03;;;;;;;;;;5054792;28;20115;-66
2023/07/08 04:36:24;;;;;;;6.00;5.30;;;;;;;;;;5053356;28;20286;-62
2023/07/08 04:38:50;;;;;;;8.65;6.15;;;;;;;;;;5053489;28;21230;-67
2023/07/08 04:41:15;;;;;;;8.75;5.85;;;;;;;;;;5057111;28;20119;-63
2023/07/08 04:43:41;;;;;;;8.77;6.03;;;;;;;;;;5020127;28;20048;-64
2023/07/08 04:46:09;;;;;;;8.88;6.00;;;;;;;;;;5056480;28;20330;-63
2023/07/08 04:48:34;;;;;;;8.07;6.30;;;;;;;;;;5041025;28;20033;-66
2023/07/08 04:51:00;;;;;;;6.43;5.50;;;;;;;;;;5060413;28;20565;-68
2023/07/08 04:53:25;;;;;;;8.40;5.87;;;;;;;;;;5056994;28;20295;-64
2023/07/08 04:55:51;;;;;;;7.25;5.70;;;;;;;;;;5057612;28;20297;-65
2023/07/08 04:58:17;;;;;;;7.82;5.88;;;;;;;;;;5060336;28;20040;-64
2023/07/08 05:00:42;;;;;;;8.23;6.13;;;;;;;;;;5049452;28;20039;-67
2023/07/08 05:03:07;;;;;;;8.33;5.37;;;;;;;;;;5044689;28;20032;-63
2023/07/08 05:05:32;;;;;;;8.33;5.80;;;;;;;;;;5060983;28;20929;-66
2023/07/08 05:07:58;;;;;;;8.50;5.60;;;;;;;;;;5060145;28;20401;-65
2023/07/08 05:10:23;;;;;;;6.60;5.30;;;;;;;;;;5060104;28;20040;-67
2023/07/08 05:12:48;;;;;;;7.90;5.88;;;;;;;;;;5058114;28;20100;-66
2023/07/08 05:15:14;;;;;;;7.30;5.10;;;;;;;;;;5060714;28;20088;-63
2023/07/08 05:17:39;;;;;;;7.72;5.70;;;;;;;;;;5051223;28;20123;-64
2023/07/08 05:20:05;;;;;;;9.52;6.13;;;;;;;;;;5061166;28;20020;-64
2023/07/08 05:22:31;;;;;;;8.20;5.80;;;;;;;;;;5045909;28;20020;-64
2023/07/08 05:24:57;;;;;;;6.70;5.30;;;;;;;;;;5046782;28;20382;-62
2023/07/08 05:27:22;;;;;;;6.53;5.38;;;;;;;;;;5048919;28;20090;-66
2023/07/08 05:29:48;;;;;;;7.38;5.38;;;;;;;;;;5062707;28;20059;-64
2023/07/08 05:32:13;;;;;;;6.70;5.68;;;;;;;;;;5062859;28;20477;-67
2023/07/08 05:34:38;;;;;;;9.38;5.65;;;;;;;;;;5046794;28;20107;-66
2023/07/08 05:37:04;;;;;;;8.07;5.37;;;;;;;;;;5044484;28;20028;-67
2023/07/08 05:39:30;;;;;;;7.57;5.00;;;;;;;;;;5028675;28;20294;-67
2023/07/08 05:41:55;;;;;;;6.32;5.30;;;;;;;;;;5061058;28;20020;-66
2023/07/08 05:44:20;;;;;;;5.83;4.97;;;;;;;;;;5041008;28;20166;-65
2023/07/08 05:46:45;;;;;;;7.73;5.37;;;;;;;;;;5062031;28;20282;-67
2023/07/08 05:49:11;;;;;;;6.90;4.60;;;;;;;;;;5045149;28;20357;-65
2023/07/08 05:51:36;;;;;;;6.97;5.20;;;;;;;;;;5044171;28;20024;-64
2023/07/08 05:54:01;;;;;;;8.30;5.22;;;;;;;;;;5033316;28;20369;-64
2023/07/08 05:56:26;;;;;;;7.43;5.07;;;;;;;;;;5060946;28;20128;-66
2023/07/08 05:58:52;;;;;;;7.03;4.85;;;;;;;;;;5061232;28;20302;-64
2023/07/08 06:01:17;;;;;;;6.67;5.17;;;;;;;;;;5058541;28;20024;-64
2023/07/08 06:03:42;;;;;;;7.10;5.30;;;;;;;;;;5044451;28;20362;-63
2023/07/08 06:06:07;;;;;;;9.60;5.40;;;;;;;;;;5031835;28;20278;-65
2023/07/08 06:08:33;;;;;;;6.50;5.07;;;;;;;;;;5044485;28;20811;-64
2023/07/08 06:10:58;;;;;;;6.75;5.45;;;;;;;;;;5043603;28;20271;-69
2023/07/08 06:13:23;;;;;;;6.35;4.93;;;;;;;;;;5040437;28;20031;-66
2023/07/08 06:15:48;;;;;;;6.57;5.28;;;;;;;;;;5032830;28;20433;-66
2023/07/08 06:18:14;;;;;;;8.23;5.70;;;;;;;;;;5042278;28;20548;-67
2023/07/08 06:20:39;;;;;;;6.77;5.30;;;;;;;;;;5063283;28;20032;-64
2023/07/08 06:23:04;;;;;;;7.20;5.18;;;;;;;;;;5046030;28;20675;-66
2023/07/08 06:25:30;;;;;;;7.78;5.60;;;;;;;;;;5063890;28;20017;-66
2023/07/08 06:27:55;;;;;;;7.50;5.70;;;;;;;;;;5045337;28;20044;-68
2023/07/08 06:30:20;;;;;;;7.18;5.60;;;;;;;;;;5028245;28;20024;-62
2023/07/08 06:32:45;;;;;;;7.90;5.43;;;;;;;;;;5047950;28;20021;-65
2023/07/08 06:35:11;;;;;;;6.30;5.43;;;;;;;;;;5057205;28;20507;-64
2023/07/08 06:37:36;;;;;;;8.80;5.28;;;;;;;;;;5041478;28;20607;-64
2023/07/08 06:40:03;;;;;;;6.80;5.60;;;;;;;;;;5041654;28;20044;-65
2023/07/08 06:42:29;;;;;;;6.63;5.22;;;;;;;;;;5056192;28;20362;-63
2023/07/08 06:44:54;;;;;;;6.35;5.22;;;;;;;;;;5058645;28;20185;-67
2023/07/08 06:47:20;;;;;;;7.68;5.35;;;;;;;;;;5056756;28;20102;-65
2023/07/08 06:49:45;;;;;;;8.75;5.25;;;;;;;;;;5057092;28;20028;-63
2023/07/08 06:52:11;;;;;;;6.82;5.50;;;;;;;;;;5023324;28;20028;-64
2023/07/08 06:54:36;;;;;;;8.45;5.30;;;;;;;;;;5041500;28;20162;-63
2023/07/08 06:57:01;;;;;;;6.07;5.10;;;;;;;;;;5036881;28;20017;-64
2023/07/08 06:59:28;;;;;;;9.43;4.73;;;;;;;;;;5056726;28;20047;-66
2023/07/08 07:01:53;;;;;;;6.38;4.82;;;;;;;;;;5057017;28;20294;-64
2023/07/08 07:04:18;;;;;;;9.93;4.70;;;;;;;;;;5057614;28;20113;-65
2023/07/08 07:06:44;;;;;;;9.17;5.33;;;;;;;;;;5041305;28;20282;-64
2023/07/08 07:09:09;;;;;;;6.13;4.40;;;;;;;;;;5055482;28;20036;-63
2023/07/08 07:11:34;;;;;;;7.60;5.13;;;;;;;;;;5053695;28;20039;-65
2023/07/08 07:13:59;;;;;;;6.35;4.78;;;;;;;;;;5056109;28;20037;-64
2023/07/08 07:16:25;;;;;;;8.00;4.90;;;;;;;;;;5040499;28;20040;-66
2023/07/08 07:18:51;;;;;;;5.80;4.33;;;;;;;;;;5057802;28;20401;-66
2023/07/08 07:21:16;;;;;;;7.00;4.57;;;;;;;;;;5057212;28;20032;-67
2023/07/08 07:23:42;;;;;;;5.87;4.80;;;;;;;;;;5056790;28;20566;-67
2023/07/08 07:26:07;;;;;;;7.40;5.07;;;;;;;;;;5048332;28;20283;-65
2023/07/08 07:28:33;;;;;;;6.50;5.05;;;;;;;;;;5058741;28;20655;-68
2023/07/08 07:30:58;;;;;;;7.13;4.40;;;;;;;;;;5057971;28;20044;-67
2023/07/08 07:33:24;;;;;;;7.28;4.97;;;;;;;;;;5021839;28;20075;-64
2023/07/08 07:35:49;;;;;;;7.13;5.00;;;;;;;;;;5023638;28;20048;-61
2023/07/08 07:38:14;;;;;;;6.83;4.93;;;;;;;;;;5039415;28;20741;-61
2023/07/08 07:40:40;;;;;;;6.65;4.80;;;;;;;;;;5039203;28;20358;-61
2023/07/08 07:43:05;;;;;;;8.48;5.30;;;;;;;;;;5055524;28;20091;-61
2023/07/08 07:45:30;;;;;;;6.97;5.30;;;;;;;;;;5058349;28;20032;-61
2023/07/08 07:47:55;;;;;;;7.07;4.93;;;;;;;;;;5037591;28;20041;-61
2023/07/08 07:50:21;;;;;;;6.60;5.03;;;;;;;;;;5040705;28;20294;-62
2023/07/08 07:52:46;;;;;;;6.80;5.05;;;;;;;;;;5040522;28;21137;-62
2023/07/08 07:55:11;;;;;;;7.30;4.90;;;;;;;;;;5056558;28;20588;-61
2023/07/08 07:57:36;;;;;;;11.63;5.13;;;;;;;;;;5057691;28;20309;-62
2023/07/08 08:00:02;;;;;;;8.30;5.10;;;;;;;;;;5057375;28;20287;-70
2023/07/08 08:02:27;;;;;;;7.30;4.65;;;;;;;;;;5053094;28;20501;-62
2023/07/08 08:04:52;;;;;;;6.47;4.88;;;;;;;;;;5054883;28;20496;-63
2023/07/08 08:07:18;;;;;;;7.95;4.90;;;;;;;;;;5055967;28;20202;-62
2023/07/08 08:09:43;;;;;;;7.57;4.78;;;;;;;;;;5055430;28;20037;-63
2023/07/08 08:12:09;;;;;;;8.07;5.20;;;;;;;;;;5044324;22;20112;-62
2023/07/08 08:14:35;;;;;;;8.15;5.28;;;;;;;;;;5030763;28;20765;-62
2023/07/08 08:17:00;;;;;;;6.22;5.47;;;;;;;;;;5037368;28;20040;-61
2023/07/08 08:19:25;;;;;;;6.88;5.40;;;;;;;;;;5043641;28;20052;-62
2023/07/08 08:21:51;;;;;;;6.25;5.05;;;;;;;;;;5055201;28;20201;-61
2023/07/08 08:24:16;;;;;;;7.70;5.37;;;;;;;;;;5055693;28;20619;-63
2023/07/08 08:26:41;;;;;;;7.30;4.95;;;;;;;;;;5056411;28;20596;-62
2023/07/08 08:29:06;;;;;;;7.73;4.90;;;;;;;;;;5036508;28;20040;-62
2023/07/08 08:31:32;;;;;;;10.07;4.97;;;;;;;;;;5065649;23;20297;-60
2023/07/08 08:33:57;;;;;;;6.45;5.22;;;;;;;;;;5052606;28;21064;-58
2023/07/08 08:36:22;;;;;;;5.43;4.70;;;;;;;;;;5053502;28;21356;-63
2023/07/08 08:38:48;;;;;;;7.65;4.95;;;;;;;;;;5040532;28;20708;-60
2023/07/08 08:41:13;;;;;;;10.80;5.47;;;;;;;;;;5050755;28;20576;-61
2023/07/08 08:43:42;;;;;;;6.85;4.90;;;;;;;;;;5053930;28;20033;-60
2023/07/08 08:46:26;;;;;;;7.60;5.55;;;;;;;;;;5053112;28;20097;-62
2023/07/08 08:49:10;;;;;;;6.78;5.13;;;;;;;;;;5050917;28;20037;-60
2023/07/08 08:51:35;;;;;;;6.35;5.05;;;;;;;;;;5052081;28;20071;-60
2023/07/08 08:54:00;;;;;;;6.07;5.10;;;;;;;;;;5039394;28;20127;-61
2023/07/08 08:56:31;;;;;;;7.07;5.30;;;;;;;;;;5050405;28;20310;-61
2023/07/08 08:58:59;;;;;;;7.72;5.82;;;;;;;;;;5039984;28;20325;-61
2023/07/08 09:01:24;;;;;;;6.93;4.95;;;;;;;;;;5052863;28;20039;-60
2023/07/08 09:04:00;;;;;;;7.10;5.18;;;;;;;;;;5018499;28;20045;-60
2023/07/08 09:06:26;;;;;;;6.55;5.30;;;;;;;;;;5036144;28;20044;-60
2023/07/08 09:08:51;;;;;;;6.28;4.95;;;;;;;;;;5038828;28;20605;-62
2023/07/08 09:11:23;;;;;;;7.00;4.93;;;;;;;;;;5052969;28;20037;-62
2023/07/08 09:13:49;;;;;;;8.07;5.60;;;;;;;;;;5052365;28;20287;-62
2023/07/08 09:16:14;;;;;;;7.40;5.27;;;;;;;;;;5040340;28;20055;-61
2023/07/08 09:18:49;;;;;;;8.23;5.37;;;;;;;;;;5051999;28;20315;-62
2023/07/08 09:21:24;;;;;;;8.70;5.30;;;;;;;;;;5051001;28;20524;-61
2023/07/08 09:23:50;;;;;;;7.63;5.60;;;;;;;;;;5052988;28;20140;-61
2023/07/08 09:26:16;;;;;;;6.15;5.45;;;;;;;;;;5035376;28;20132;-61
2023/07/08 09:28:42;;;;;;;6.55;5.32;;;;;;;;;;5041196;28;20037;-61
2023/07/08 09:31:08;;;;;;;6.38;5.13;;;;;;;;;;5051250;28;20389;-62
2023/07/08 09:33:34;;;;;;;7.28;4.70;;;;;;;;;;5052870;28;20032;-60
2023/07/08 09:36:00;;;;;;;6.70;5.07;;;;;;;;;;5050414;28;20111;-61
2023/07/08 09:38:25;;;;;;;8.30;4.78;;;;;;;;;;5050887;28;20117;-62
2023/07/08 09:40:53;;;;;;;7.20;5.30;;;;;;;;;;5050301;28;20037;-61
2023/07/08 09:43:24;;;;;;;5.80;4.93;;;;;;;;;;5051815;28;20379;-61
2023/07/08 09:45:50;;;;;;;8.25;5.13;;;;;;;;;;5036326;28;20041;-61
2023/07/08 09:48:21;;;;;;;9.00;4.68;;;;;;;;;;5053254;28;20090;-61
2023/07/08 09:50:47;;;;;;;6.22;5.28;;;;;;;;;;5021786;28;20493;-62
2023/07/08 09:53:13;;;;;;;6.22;4.57;;;;;;;;;;5039348;28;20086;-62
2023/07/08 09:55:38;;;;;;;6.63;4.70;;;;;;;;;;5036776;28;20025;-62
2023/07/08 09:58:03;;;;;;;6.07;4.67;;;;;;;;;;5048926;28;20048;-60
2023/07/08 10:00:33;;;;;;;6.95;4.70;;;;;;;;;;5048651;28;20305;-62
2023/07/08 10:02:59;;;;;;;6.22;5.03;;;;;;;;;;5038226;28;20103;-61
2023/07/08 10:05:35;;;;;;;6.10;4.45;;;;;;;;;;5038286;28;20904;-63
2023/07/08 10:08:00;;;;;;;6.28;4.95;;;;;;;;;;5032483;28;20060;-64
2023/07/08 10:10:35;;;;;;;5.38;4.22;;;;;;;;;;5016981;28;20069;-62
2023/07/08 10:13:01;;;;;;;6.85;4.45;;;;;;;;;;5049933;28;20507;-63
2023/07/08 10:15:26;;;;;;;8.73;4.55;;;;;;;;;;5036712;28;20043;-62
2023/07/08 10:17:52;;;;;;;5.93;4.43;;;;;;;;;;5050804;28;20053;-61
2023/07/08 10:20:17;;;;;;;6.50;4.57;;;;;;;;;;5032124;28;20364;-61
2023/07/08 10:22:46;;;;;;;5.13;4.13;;;;;;;;;;5051475;28;20112;-61
2023/07/08 10:25:20;;;;;;;6.00;4.28;;;;;;;;;;5049484;28;20102;-59
2023/07/08 10:28:05;;;;;;;5.80;3.92;;;;;;;;;;5037900;28;20136;-61
2023/07/08 10:30:31;;;;;;;5.28;4.00;;;;;;;;;;5052571;28;20483;-62
2023/07/08 10:32:57;;;;;;;7.13;4.60;;;;;;;;;;5038470;28;20025;-62
2023/07/08 10:35:27;;;;;;;5.10;4.03;;;;;;;;;;5050212;28;20052;-63
2023/07/08 10:38:11;;;;;;;6.22;4.28;;;;;;;;;;5034724;28;20536;-61
2023/07/08 10:40:48;;;;;;;5.90;4.20;;;;;;;;;;5047122;28;20068;-62
2023/07/08 10:43:26;;;;;;;5.78;3.97;;;;;;;;;;5050586;28;20033;-63
2023/07/08 10:46:13;;;;;;;5.13;4.20;;;;;;;;;;5051109;28;20033;-63
2023/07/08 10:48:46;;;;;;;6.25;3.88;;;;;;;;;;5021806;28;20052;-62
2023/07/08 10:51:18;;;;;;;6.20;4.10;;;;;;;;;;5049137;28;20120;-64
2023/07/08 10:53:50;;;;;;;4.40;3.63;;;;;;;;;;5030727;28;20560;-62
2023/07/08 10:56:18;;;;;;;4.45;3.65;;;;;;;;;;5023223;28;20017;-62
2023/07/08 10:58:44;;;;;;;6.05;4.00;;;;;;;;;;5051661;28;20075;-62
2023/07/08 11:01:28;;;;;;;5.18;4.13;;;;;;;;;;5036062;28;20067;-62
2023/07/08 11:04:02;;;;;;;7.25;3.83;;;;;;;;;;5052561;28;20174;-62
2023/07/08 11:06:38;;;;;;;4.10;3.30;;;;;;;;;;5051047;28;20056;-63
2023/07/08 11:09:04;;;;;;;5.20;3.95;;;;;;;;;;5055326;28;20043;-63
2023/07/08 11:11:32;;;;;;;5.05;3.65;;;;;;;;;;5038747;28;20508;-63
2023/07/08 11:14:11;;;;;;;5.30;3.72;;;;;;;;;;5043305;28;20147;-63
2023/07/08 11:16:38;;;;;;;5.18;3.85;;;;;;;;;;5041082;28;20062;-63
2023/07/08 11:19:08;;;;;;;5.43;3.85;;;;;;;;;;5053017;28;20126;-63
2023/07/08 11:21:47;;;;;;;6.15;3.90;;;;;;;;;;5017827;28;20033;-62
2023/07/08 11:24:19;;;;;;;5.40;3.72;;;;;;;;;;5035496;28;20136;-61
2023/07/08 11:27:07;;;;;;;4.75;3.75;;;;;;;;;;5030165;28;20058;-62
2023/07/08 11:29:36;;;;;;;4.95;3.83;;;;;;;;;;5029296;28;20041;-62
2023/07/08 11:32:01;;;;;;;4.97;3.85;;;;;;;;;;5051059;28;20127;-62
2023/07/08 11:34:28;;;;;;;5.72;3.60;;;;;;;;;;5032672;28;20230;-62
2023/07/08 11:36:55;;;;;;;5.22;4.00;;;;;;;;;;5019426;28;20040;-62
2023/07/08 11:39:34;;;;;;;4.03;3.45;;;;;;;;;;5020630;28;20067;-62
2023/07/08 11:42:25;;;;;;;4.95;4.00;;;;;;;;;;5039793;28;20040;-62
2023/07/08 11:44:52;;;;;;;4.07;3.63;;;;;;;;;;5011760;28;20154;-62
2023/07/08 11:47:19;;;;;;;6.00;4.28;;;;;;;;;;5042975;28;20036;-62
2023/07/08 11:49:45;;;;;;;4.03;3.50;;;;;;;;;;5044196;28;20517;-62
2023/07/08 11:52:13;;;;;;;5.65;4.03;;;;;;;;;;5043800;28;20047;-63
2023/07/08 11:54:39;;;;;;;5.20;3.90;;;;;;;;;;5045564;28;20028;-62
2023/07/08 11:57:05;;;;;;;4.20;3.70;;;;;;;;;;5044437;28;20071;-61
2023/07/08 11:59:37;;;;;;;4.57;3.88;;;;;;;;;;5061140;28;20036;-61
2023/07/08 13:22:35;;;;;;;3.88;2.78;;;;;;;;;;4108272;22;20510;-81
2023/07/08 13:25:00;;;;;;;3.47;2.75;;;;;;;;;;5042965;28;20048;-79
2023/07/08 13:27:26;;;;;;;3.75;2.80;;;;;;;;;;5048717;28;20024;-80
2023/07/08 13:29:54;;;;;;;4.28;3.00;;;;;;;;;;5043934;28;20593;-78
2023/07/08 13:32:29;;;;;;;4.22;2.75;;;;;;;;;;5061596;28;20033;-80
2023/07/08 13:34:54;;;;;;;3.75;2.50;;;;;;;;;;5052719;28;20071;-80
2023/07/08 13:37:24;;;;;;;4.53;2.70;;;;;;;;;;5071394;28;20477;-80
2023/07/08 13:39:49;;;;;;;5.07;2.90;;;;;;;;;;5069178;28;20044;-80
2023/07/08 13:42:14;;;;;;;4.35;2.85;;;;;;;;;;5072863;28;20028;-80
2023/07/08 13:44:46;;;;;;;4.00;2.30;;;;;;;;;;5056747;28;20036;-81
2023/07/08 13:47:21;;;;;;;4.20;2.50;;;;;;;;;;5053487;28;20037;-81
2023/07/08 13:49:47;;;;;;;5.10;2.90;;;;;;;;;;5047792;28;20041;-80
2023/07/08 13:52:13;;;;;;;3.45;2.50;;;;;;;;;;5049664;28;20029;-80
2023/07/08 13:54:49;;;;;;;4.15;2.40;;;;;;;;;;5067072;28;20037;-80
2023/07/08 13:57:15;;;;;;;4.10;2.63;;;;;;;;;;5040976;28;20055;-79
2023/07/08 13:59:41;;;;;;;5.00;2.40;;;;;;;;;;5056919;28;20020;-80
2023/07/08 14:02:13;;;;;;;5.50;2.60;;;;;;;;;;5045127;28;20032;-81
2023/07/08 14:04:38;;;;;;;3.75;2.45;;;;;;;;;;5048753;28;20274;-80
2023/07/08 14:07:09;;;;;;;3.73;2.60;;;;;;;;;;5062210;28;20021;-81
2023/07/08 14:09:34;;;;;;;4.45;2.60;;;;;;;;;;5035870;28;20804;-80
2023/07/08 14:12:00;;;;;;;3.47;2.10;;;;;;;;;;5062303;28;20056;-80
2023/07/08 14:14:25;;;;;;;3.40;2.30;;;;;;;;;;5067716;28;20624;-82
2023/07/08 14:16:51;;;;;;;4.60;2.27;;;;;;;;;;5048713;28;20295;-81
2023/07/08 14:19:17;;;;;;;5.13;2.40;;;;;;;;;;5061059;28;20641;-82
2023/07/08 14:21:42;;;;;;;6.32;2.75;;;;;;;;;;5061480;28;20017;-82
2023/07/08 14:24:12;;;;;;;4.65;2.60;;;;;;;;;;5059469;28;20115;-80
2023/07/08 14:26:37;;;;;;;4.72;2.47;;;;;;;;;;5041575;28;20036;-80
2023/07/08 14:29:02;;;;;;;4.60;2.60;;;;;;;;;;5058909;28;21199;-81
2023/07/08 14:31:28;;;;;;;4.07;2.72;;;;;;;;;;5063340;28;20287;-80
2023/07/08 14:34:04;;;;;;;6.03;2.83;;;;;;;;;;5042617;28;20910;-81
2023/07/08 14:36:29;;;;;;;5.88;2.53;;;;;;;;;;5036512;28;20287;-82
2023/07/08 14:38:55;;;;;;;4.88;2.42;;;;;;;;;;5061381;28;20041;-82
2023/07/08 14:41:20;;;;;;;4.32;2.30;;;;;;;;;;5058645;28;20044;-80
2023/07/08 14:43:45;;;;;;;5.43;2.60;;;;;;;;;;5039290;28;20131;-82
2023/07/08 14:46:11;;;;;;;5.03;2.50;;;;;;;;;;5046808;28;20033;-81
2023/07/08 14:48:36;;;;;;;4.70;2.43;;;;;;;;;;5059246;28;20028;-81
2023/07/08 14:51:01;;;;;;;3.80;2.40;;;;;;;;;;5059701;28;20039;-81
2023/07/08 14:53:26;;;;;;;3.23;2.30;;;;;;;;;;5059418;28;20049;-81
2023/07/08 14:55:53;;;;;;;4.03;2.67;;;;;;;;;;5057383;28;20366;-82
2023/07/08 14:58:45;;;;;;;3.63;2.78;;;;;;;;;;5049790;28;20102;-81
2023/07/08 15:01:19;;;;;;;4.40;2.55;;;;;;;;;;5054912;28;20053;-81
2023/07/08 15:03:45;;;;;;;4.38;2.70;;;;;;;;;;5042828;28;20297;-81
2023/07/08 15:06:10;;;;;;;3.83;2.40;;;;;;;;;;5058122;28;20129;-82
2023/07/08 15:08:35;;;;;;;3.92;2.50;;;;;;;;;;5044449;28;20040;-82
2023/07/08 15:11:01;;;;;;;5.18;3.00;;;;;;;;;;5065841;28;20037;-81
2023/07/08 15:13:27;;;;;;;5.90;2.58;;;;;;;;;;5061878;28;20033;-82
2023/07/08 15:15:52;;;;;;;4.13;2.80;;;;;;;;;;5062153;28;20305;-80
2023/07/08 15:18:19;;;;;;;5.50;2.70;;;;;;;;;;5053976;28;20303;-81
2023/07/08 15:20:44;;;;;;;4.97;2.65;;;;;;;;;;5071155;28;20028;-81
2023/07/08 15:23:10;;;;;;;4.93;2.60;;;;;;;;;;5069680;28;20044;-81
2023/07/08 15:25:35;;;;;;;5.15;2.60;;;;;;;;;;5075151;28;20035;-83
2023/07/08 15:28:02;;;;;;;3.90;2.67;;;;;;;;;;5082352;28;20049;-81
2023/07/08 15:30:27;;;;;;;5.07;2.60;;;;;;;;;;5077586;28;20126;-82
2023/07/08 15:32:52;;;;;;;5.63;2.90;;;;;;;;;;5053716;28;20414;-83
2023/07/08 15:35:21;;;;;;;4.28;2.67;;;;;;;;;;5071242;28;20093;-84
2023/07/08 15:37:46;;;;;;;5.80;3.15;;;;;;;;;;5052722;28;20054;-81
2023/07/08 15:40:12;;;;;;;5.03;2.83;;;;;;;;;;5055396;28;20064;-81
2023/07/08 15:42:38;;;;;;;3.90;2.58;;;;;;;;;;5068412;28;20101;-79
2023/07/08 15:45:16;;;;;;;3.67;2.63;;;;;;;;;;5075461;28;20028;-80
2023/07/08 15:47:42;;;;;;;6.93;2.77;;;;;;;;;;5052054;28;20037;-81
2023/07/08 15:50:11;;;;;;;5.22;2.60;;;;;;;;;;5048863;28;20314;-81
2023/07/08 15:52:36;;;;;;;4.80;2.85;;;;;;;;;;5058345;28;20463;-80
2023/07/08 15:55:02;;;;;;;4.45;2.85;;;;;;;;;;5069378;28;20089;-81
2023/07/08 15:57:28;;;;;;;4.22;2.72;;;;;;;;;;5071668;28;20041;-81
2023/07/08 15:59:53;;;;;;;4.30;2.70;;;;;;;;;;5079768;23;21879;-61